sensor_id;sensor_type;location;lat;lon;timestamp;pressure;altitude;pressure_sealevel;temperature;humidity
56713;BME280;42589;45.536;9.032;2023-06-05T00:01:26;99788.50;;;35.18;28.73
56713;BME280;42589;45.536;9.032;2023-06-05T00:04:27;99791.22;;;34.86;29.19
56713;BME280;42589;45.536;9.032;2023-06-05T00:07:28;99784.22;;;35.34;28.85
56713;BME280;42589;45.536;9.032;2023-06-05T00:10:29;99793.25;;;35.26;28.66
56713;BME280;42589;45.536;9.032;2023-06-05T00:13:30;99795.53;;;35.55;28.35
56713;BME280;42589;45.536;9.032;2023-06-05T00:16:31;99789.97;;;35.46;28.52
56713;BME280;42589;45.536;9.032;2023-06-05T00:19:32;99791.19;;;35.63;28.11
56713;BME280;42589;45.536;9.032;2023-06-05T00:22:35;99786.81;;;35.70;28.47
56713;BME280;42589;45.536;9.032;2023-06-05T00:25:35;99780.22;;;35.18;29.11
56713;BME280;42589;45.536;9.032;2023-06-05T00:28:36;99788.16;;;35.50;28.74
56713;BME280;42589;45.536;9.032;2023-06-05T00:31:39;99781.81;;;35.81;28.44
56713;BME280;42589;45.536;9.032;2023-06-05T00:34:39;99784.84;;;35.31;29.34
56713;BME280;42589;45.536;9.032;2023-06-05T00:37:40;99792.16;;;35.67;28.51
56713;BME280;42589;45.536;9.032;2023-06-05T00:40:41;99783.09;;;35.44;29.22
56713;BME280;42589;45.536;9.032;2023-06-05T00:43:43;99780.66;;;35.42;28.63
56713;BME280;42589;45.536;9.032;2023-06-05T00:46:43;99784.72;;;35.45;29.12
56713;BME280;42589;45.536;9.032;2023-06-05T00:49:45;99773.84;;;35.40;28.80
56713;BME280;42589;45.536;9.032;2023-06-05T00:52:47;99777.13;;;35.50;28.82
56713;BME280;42589;45.536;9.032;2023-06-05T00:55:49;99776.63;;;34.95;29.79
56713;BME280;42589;45.536;9.032;2023-06-05T00:58:52;99786.97;;;35.34;29.41
56713;BME280;42589;45.536;9.032;2023-06-05T01:01:53;99783.97;;;35.22;29.68
56713;BME280;42589;45.536;9.032;2023-06-05T01:04:54;99780.34;;;34.90;29.87
56713;BME280;42589;45.536;9.032;2023-06-05T01:07:57;99779.78;;;34.57;30.65
56713;BME280;42589;45.536;9.032;2023-06-05T01:11:00;99782.03;;;35.53;29.92
56713;BME280;42589;45.536;9.032;2023-06-05T01:17:04;99763.97;;;33.57;31.67
56713;BME280;42589;45.536;9.032;2023-06-05T01:20:06;99761.25;;;33.11;32.97
56713;BME280;42589;45.536;9.032;2023-06-05T01:23:09;99763.78;;;33.54;31.76
56713;BME280;42589;45.536;9.032;2023-06-05T01:26:24;99759.94;;;35.22;29.97
56713;BME280;42589;45.536;9.032;2023-06-05T01:29:43;99753.53;;;35.13;30.13
56713;BME280;42589;45.536;9.032;2023-06-05T01:32:56;99752.69;;;35.04;29.56
56713;BME280;42589;45.536;9.032;2023-06-05T01:36:02;99754.13;;;34.56;30.23
56713;BME280;42589;45.536;9.032;2023-06-05T01:39:05;99751.47;;;34.51;30.51
56713;BME280;42589;45.536;9.032;2023-06-05T01:42:09;99747.50;;;35.11;29.68
56713;BME280;42589;45.536;9.032;2023-06-05T01:45:11;99750.56;;;34.06;31.12
56713;BME280;42589;45.536;9.032;2023-06-05T01:48:12;99757.13;;;34.69;30.06
56713;BME280;42589;45.536;9.032;2023-06-05T01:51:14;99744.41;;;34.23;30.77
56713;BME280;42589;45.536;9.032;2023-06-05T01:54:15;99751.47;;;34.51;30.02
56713;BME280;42589;45.536;9.032;2023-06-05T01:57:19;99742.97;;;34.61;30.26
56713;BME280;42589;45.536;9.032;2023-06-05T02:00:21;99737.44;;;35.06;29.60
56713;BME280;42589;45.536;9.032;2023-06-05T02:03:22;99751.47;;;34.15;31.13
56713;BME280;42589;45.536;9.032;2023-06-05T02:06:23;99735.81;;;34.60;29.63
56713;BME280;42589;45.536;9.032;2023-06-05T02:09:25;99745.94;;;34.51;29.81
56713;BME280;42589;45.536;9.032;2023-06-05T02:12:26;62941.88;;;-144.18;100.00
56713;BME280;42589;45.536;9.032;2023-06-05T02:15:27;62941.88;;;-144.18;100.00
56713;BME280;42589;45.536;9.032;2023-06-05T02:18:32;62941.88;;;-144.18;100.00
56713;BME280;42589;45.536;9.032;2023-06-05T02:21:33;62941.88;;;-144.18;100.00
56713;BME280;42589;45.536;9.032;2023-06-05T02:24:34;62941.88;;;-144.18;100.00
56713;BME280;42589;45.536;9.032;2023-06-05T02:27:34;62941.88;;;-144.18;100.00
56713;BME280;42589;45.536;9.032;2023-06-05T02:30:35;62941.88;;;-144.18;100.00
56713;BME280;42589;45.536;9.032;2023-06-05T02:33:37;62941.88;;;-144.18;100.00
56713;BME280;42589;45.536;9.032;2023-06-05T02:36:38;62941.88;;;-144.18;100.00
56713;BME280;42589;45.536;9.032;2023-06-05T02:39:38;62941.88;;;-144.18;100.00
56713;BME280;42589;45.536;9.032;2023-06-05T02:42:39;62941.88;;;-144.18;100.00
56713;BME280;42589;45.536;9.032;2023-06-05T02:45:40;62941.88;;;-144.18;100.00
56713;BME280;42589;45.536;9.032;2023-06-05T02:48:41;62941.88;;;-144.18;100.00
56713;BME280;42589;45.536;9.032;2023-06-05T02:51:42;62941.88;;;-144.18;100.00
56713;BME280;42589;45.536;9.032;2023-06-05T02:54:43;62941.88;;;-144.18;100.00
56713;BME280;42589;45.536;9.032;2023-06-05T02:57:44;62941.88;;;-144.18;100.00
56713;BME280;42589;45.536;9.032;2023-06-05T03:00:49;62941.88;;;-144.18;100.00
56713;BME280;42589;45.536;9.032;2023-06-05T03:03:53;62941.88;;;-144.18;100.00
56713;BME280;42589;45.536;9.032;2023-06-05T03:06:53;62941.88;;;-144.18;100.00
56713;BME280;42589;45.536;9.032;2023-06-05T03:09:57;62941.88;;;-144.18;100.00
56713;BME280;42589;45.536;9.032;2023-06-05T03:12:58;62941.88;;;-144.18;100.00
56713;BME280;42589;45.536;9.032;2023-06-05T03:15:59;62941.88;;;-144.18;100.00
56713;BME280;42589;45.536;9.032;2023-06-05T03:19:06;62941.88;;;-144.18;100.00
56713;BME280;42589;45.536;9.032;2023-06-05T03:22:07;62941.88;;;-144.18;100.00
56713;BME280;42589;45.536;9.032;2023-06-05T03:25:08;62941.88;;;-144.18;100.00
56713;BME280;42589;45.536;9.032;2023-06-05T03:28:08;62941.88;;;-144.18;100.00
56713;BME280;42589;45.536;9.032;2023-06-05T03:31:09;62941.88;;;-144.18;100.00
56713;BME280;42589;45.536;9.032;2023-06-05T03:34:10;62941.88;;;-144.18;100.00
56713;BME280;42589;45.536;9.032;2023-06-05T03:37:11;62941.88;;;-144.18;100.00
56713;BME280;42589;45.536;9.032;2023-06-05T03:40:12;62941.88;;;-144.18;100.00
56713;BME280;42589;45.536;9.032;2023-06-05T03:43:12;62941.88;;;-144.18;100.00
56713;BME280;42589;45.536;9.032;2023-06-05T03:46:13;62941.88;;;-144.18;100.00
56713;BME280;42589;45.536;9.032;2023-06-05T03:49:18;62941.88;;;-144.18;100.00
56713;BME280;42589;45.536;9.032;2023-06-05T03:52:20;62941.88;;;-144.18;100.00
56713;BME280;42589;45.536;9.032;2023-06-05T03:55:24;62941.88;;;-144.18;100.00
56713;BME280;42589;45.536;9.032;2023-06-05T03:58:25;62941.88;;;-144.18;100.00
56713;BME280;42589;45.536;9.032;2023-06-05T04:01:27;62941.88;;;-144.18;100.00
56713;BME280;42589;45.536;9.032;2023-06-05T04:04:30;62941.88;;;-144.18;100.00
56713;BME280;42589;45.536;9.032;2023-06-05T04:07:30;62941.88;;;-144.18;100.00
56713;BME280;42589;45.536;9.032;2023-06-05T04:10:31;62941.88;;;-144.18;100.00
56713;BME280;42589;45.536;9.032;2023-06-05T04:13:32;62941.88;;;-144.18;100.00
56713;BME280;42589;45.536;9.032;2023-06-05T04:16:33;62941.88;;;-144.18;100.00
56713;BME280;42589;45.536;9.032;2023-06-05T04:19:34;62941.88;;;-144.18;100.00
56713;BME280;42589;45.536;9.032;2023-06-05T04:22:35;62941.88;;;-144.18;100.00
56713;BME280;42589;45.536;9.032;2023-06-05T04:25:36;62941.88;;;-144.18;100.00
56713;BME280;42589;45.536;9.032;2023-06-05T04:28:37;62941.88;;;-144.18;100.00
56713;BME280;42589;45.536;9.032;2023-06-05T04:31:38;62941.88;;;-144.18;100.00
56713;BME280;42589;45.536;9.032;2023-06-05T04:34:40;62941.88;;;-144.18;100.00
56713;BME280;42589;45.536;9.032;2023-06-05T04:37:42;62941.88;;;-144.18;100.00
56713;BME280;42589;45.536;9.032;2023-06-05T04:40:44;62941.88;;;-144.18;100.00
56713;BME280;42589;45.536;9.032;2023-06-05T04:43:46;62941.88;;;-144.18;100.00
56713;BME280;42589;45.536;9.032;2023-06-05T04:46:46;62941.88;;;-144.18;100.00
56713;BME280;42589;45.536;9.032;2023-06-05T04:49:47;62941.88;;;-144.18;100.00
56713;BME280;42589;45.536;9.032;2023-06-05T04:52:52;62941.88;;;-144.18;100.00
56713;BME280;42589;45.536;9.032;2023-06-05T04:55:53;62941.88;;;-144.18;100.00
56713;BME280;42589;45.536;9.032;2023-06-05T04:58:54;62941.88;;;-144.18;100.00
56713;BME280;42589;45.536;9.032;2023-06-05T05:01:56;62941.88;;;-144.18;100.00
56713;BME280;42589;45.536;9.032;2023-06-05T05:04:56;62941.88;;;-144.18;100.00
56713;BME280;42589;45.536;9.032;2023-06-05T05:07:58;62941.88;;;-144.18;100.00
56713;BME280;42589;45.536;9.032;2023-06-05T05:10:59;62941.88;;;-144.18;100.00
56713;BME280;42589;45.536;9.032;2023-06-05T05:14:00;62941.88;;;-144.18;100.00
56713;BME280;42589;45.536;9.032;2023-06-05T05:17:02;62941.88;;;-144.18;100.00
56713;BME280;42589;45.536;9.032;2023-06-05T05:20:03;62941.88;;;-144.18;100.00
56713;BME280;42589;45.536;9.032;2023-06-05T05:23:06;62941.88;;;-144.18;100.00
56713;BME280;42589;45.536;9.032;2023-06-05T05:26:09;62941.88;;;-144.18;100.00
56713;BME280;42589;45.536;9.032;2023-06-05T05:29:10;62941.88;;;-144.18;100.00
56713;BME280;42589;45.536;9.032;2023-06-05T05:32:11;62941.88;;;-144.18;100.00
56713;BME280;42589;45.536;9.032;2023-06-05T05:35:12;62941.88;;;-144.18;100.00
56713;BME280;42589;45.536;9.032;2023-06-05T05:38:13;62941.88;;;-144.18;100.00
56713;BME280;42589;45.536;9.032;2023-06-05T05:41:14;62941.88;;;-144.18;100.00
56713;BME280;42589;45.536;9.032;2023-06-05T05:44:15;62941.88;;;-144.18;100.00
56713;BME280;42589;45.536;9.032;2023-06-05T05:47:16;62941.88;;;-144.18;100.00
56713;BME280;42589;45.536;9.032;2023-06-05T05:50:16;62941.88;;;-144.18;100.00
56713;BME280;42589;45.536;9.032;2023-06-05T05:53:21;62941.88;;;-144.18;100.00
56713;BME280;42589;45.536;9.032;2023-06-05T05:56:26;62941.88;;;-144.18;100.00
56713;BME280;42589;45.536;9.032;2023-06-05T05:59:28;62941.88;;;-144.18;100.00
56713;BME280;42589;45.536;9.032;2023-06-05T06:02:28;62941.88;;;-144.18;100.00
56713;BME280;42589;45.536;9.032;2023-06-05T06:05:31;62941.88;;;-144.18;100.00
56713;BME280;42589;45.536;9.032;2023-06-05T06:08:33;62941.88;;;-144.18;100.00
56713;BME280;42589;45.536;9.032;2023-06-05T06:11:36;62941.88;;;-144.18;100.00
56713;BME280;42589;45.536;9.032;2023-06-05T06:14:37;62941.88;;;-144.18;100.00
56713;BME280;42589;45.536;9.032;2023-06-05T06:17:38;62941.88;;;-144.18;100.00
56713;BME280;42589;45.536;9.032;2023-06-05T06:20:38;62941.88;;;-144.18;100.00
56713;BME280;42589;45.536;9.032;2023-06-05T06:23:39;62941.88;;;-144.18;100.00
56713;BME280;42589;45.536;9.032;2023-06-05T06:26:40;62941.88;;;-144.18;100.00
56713;BME280;42589;45.536;9.032;2023-06-05T06:29:50;62941.88;;;-144.18;100.00
56713;BME280;42589;45.536;9.032;2023-06-05T06:32:54;62941.88;;;-144.18;100.00
56713;BME280;42589;45.536;9.032;2023-06-05T06:36:01;62941.88;;;-144.18;100.00
56713;BME280;42589;45.536;9.032;2023-06-05T06:39:41;62941.88;;;-144.18;100.00
56713;BME280;42589;45.536;9.032;2023-06-05T06:42:41;62941.88;;;-144.18;100.00
56713;BME280;42589;45.536;9.032;2023-06-05T06:45:43;62941.88;;;-144.18;100.00
56713;BME280;42589;45.536;9.032;2023-06-05T06:48:46;62941.88;;;-144.18;100.00
56713;BME280;42589;45.536;9.032;2023-06-05T06:51:47;62941.88;;;-144.18;100.00
56713;BME280;42589;45.536;9.032;2023-06-05T06:54:48;62941.88;;;-144.18;100.00
56713;BME280;42589;45.536;9.032;2023-06-05T06:57:49;62941.88;;;-144.18;100.00
56713;BME280;42589;45.536;9.032;2023-06-05T07:00:49;62941.88;;;-144.18;100.00
56713;BME280;42589;45.536;9.032;2023-06-05T07:03:51;62941.88;;;-144.18;100.00
56713;BME280;42589;45.536;9.032;2023-06-05T07:06:52;62941.88;;;-144.18;100.00
56713;BME280;42589;45.536;9.032;2023-06-05T07:09:54;62941.88;;;-144.18;100.00
56713;BME280;42589;45.536;9.032;2023-06-05T07:12:57;62941.88;;;-144.18;100.00
56713;BME280;42589;45.536;9.032;2023-06-05T07:15:58;62941.88;;;-144.18;100.00
56713;BME280;42589;45.536;9.032;2023-06-05T07:18:59;62941.88;;;-144.18;100.00
56713;BME280;42589;45.536;9.032;2023-06-05T07:22:01;62941.88;;;-144.18;100.00
56713;BME280;42589;45.536;9.032;2023-06-05T07:25:06;62941.88;;;-144.18;100.00
56713;BME280;42589;45.536;9.032;2023-06-05T07:28:10;62941.88;;;-144.18;100.00
56713;BME280;42589;45.536;9.032;2023-06-05T07:31:13;62941.88;;;-144.18;100.00
56713;BME280;42589;45.536;9.032;2023-06-05T07:34:14;62941.88;;;-144.18;100.00
56713;BME280;42589;45.536;9.032;2023-06-05T07:37:15;62941.88;;;-144.18;100.00
56713;BME280;42589;45.536;9.032;2023-06-05T07:40:16;62941.88;;;-144.18;100.00
56713;BME280;42589;45.536;9.032;2023-06-05T07:43:17;62941.88;;;-144.18;100.00
56713;BME280;42589;45.536;9.032;2023-06-05T07:46:19;62941.88;;;-144.18;100.00
56713;BME280;42589;45.536;9.032;2023-06-05T07:49:20;62941.88;;;-144.18;100.00
56713;BME280;42589;45.536;9.032;2023-06-05T07:52:23;62941.88;;;-144.18;100.00
56713;BME280;42589;45.536;9.032;2023-06-05T07:55:24;62941.88;;;-144.18;100.00
56713;BME280;42589;45.536;9.032;2023-06-05T07:58:25;62941.88;;;-144.18;100.00
56713;BME280;42589;45.536;9.032;2023-06-05T08:01:29;62941.88;;;-144.18;100.00
56713;BME280;42589;45.536;9.032;2023-06-05T08:04:30;62941.88;;;-144.18;100.00
56713;BME280;42589;45.536;9.032;2023-06-05T08:07:31;62941.88;;;-144.18;100.00
56713;BME280;42589;45.536;9.032;2023-06-05T08:10:32;62941.88;;;-144.18;100.00
56713;BME280;42589;45.536;9.032;2023-06-05T08:13:37;62941.88;;;-144.18;100.00
56713;BME280;42589;45.536;9.032;2023-06-05T08:16:38;62941.88;;;-144.18;100.00
56713;BME280;42589;45.536;9.032;2023-06-05T08:19:39;62941.88;;;-144.18;100.00
56713;BME280;42589;45.536;9.032;2023-06-05T08:22:39;62941.88;;;-144.18;100.00
56713;BME280;42589;45.536;9.032;2023-06-05T08:25:43;62941.88;;;-144.18;100.00
56713;BME280;42589;45.536;9.032;2023-06-05T08:28:44;62941.88;;;-144.18;100.00
56713;BME280;42589;45.536;9.032;2023-06-05T08:31:44;62941.88;;;-144.18;100.00
56713;BME280;42589;45.536;9.032;2023-06-05T08:34:45;62941.88;;;-144.18;100.00
56713;BME280;42589;45.536;9.032;2023-06-05T08:37:49;62941.88;;;-144.18;100.00
56713;BME280;42589;45.536;9.032;2023-06-05T08:40:59;62941.88;;;-144.18;100.00
56713;BME280;42589;45.536;9.032;2023-06-05T08:44:01;62941.88;;;-144.18;100.00
56713;BME280;42589;45.536;9.032;2023-06-05T08:47:03;62941.88;;;-144.18;100.00
56713;BME280;42589;45.536;9.032;2023-06-05T08:50:06;62941.88;;;-144.18;100.00
56713;BME280;42589;45.536;9.032;2023-06-05T08:53:07;62941.88;;;-144.18;100.00
56713;BME280;42589;45.536;9.032;2023-06-05T08:56:08;62941.88;;;-144.18;100.00
56713;BME280;42589;45.536;9.032;2023-06-05T08:59:10;62941.88;;;-144.18;100.00
56713;BME280;42589;45.536;9.032;2023-06-05T09:02:14;62941.88;;;-144.18;100.00
56713;BME280;42589;45.536;9.032;2023-06-05T09:05:17;62941.88;;;-144.18;100.00
56713;BME280;42589;45.536;9.032;2023-06-05T09:08:19;62941.88;;;-144.18;100.00
56713;BME280;42589;45.536;9.032;2023-06-05T09:11:21;62941.88;;;-144.18;100.00
56713;BME280;42589;45.536;9.032;2023-06-05T09:14:25;62941.88;;;-144.18;100.00
56713;BME280;42589;45.536;9.032;2023-06-05T09:17:27;62941.88;;;-144.18;100.00
56713;BME280;42589;45.536;9.032;2023-06-05T09:20:27;62941.88;;;-144.18;100.00
56713;BME280;42589;45.536;9.032;2023-06-05T09:23:29;62941.88;;;-144.18;100.00
56713;BME280;42589;45.536;9.032;2023-06-05T09:29:45;62941.88;;;-144.18;100.00
56713;BME280;42589;45.536;9.032;2023-06-05T09:32:47;62941.88;;;-144.18;100.00
56713;BME280;42589;45.536;9.032;2023-06-05T09:36:11;62941.88;;;-144.18;100.00
56713;BME280;42589;45.536;9.032;2023-06-05T09:39:15;62941.88;;;-144.18;100.00
56713;BME280;42589;45.536;9.032;2023-06-05T09:42:16;62941.88;;;-144.18;100.00
56713;BME280;42589;45.536;9.032;2023-06-05T09:45:41;62941.88;;;-144.18;100.00
56713;BME280;42589;45.536;9.032;2023-06-05T09:48:52;62941.88;;;-144.18;100.00
56713;BME280;42589;45.536;9.032;2023-06-05T09:51:55;62941.88;;;-144.18;100.00
56713;BME280;42589;45.536;9.032;2023-06-05T09:55:00;62941.88;;;-144.18;100.00
56713;BME280;42589;45.536;9.032;2023-06-05T09:58:04;62941.88;;;-144.18;100.00
56713;BME280;42589;45.536;9.032;2023-06-05T10:01:15;62941.88;;;-144.18;100.00
56713;BME280;42589;45.536;9.032;2023-06-05T10:04:28;62941.88;;;-144.18;100.00
56713;BME280;42589;45.536;9.032;2023-06-05T10:07:32;62941.88;;;-144.18;100.00
56713;BME280;42589;45.536;9.032;2023-06-05T10:10:34;62941.88;;;-144.18;100.00
56713;BME280;42589;45.536;9.032;2023-06-05T10:13:36;62941.88;;;-144.18;100.00
56713;BME280;42589;45.536;9.032;2023-06-05T10:16:38;62941.88;;;-144.18;100.00
56713;BME280;42589;45.536;9.032;2023-06-05T10:19:43;62941.88;;;-144.18;100.00
56713;BME280;42589;45.536;9.032;2023-06-05T10:22:44;62941.88;;;-144.18;100.00
56713;BME280;42589;45.536;9.032;2023-06-05T10:25:47;62941.88;;;-144.18;100.00
56713;BME280;42589;45.536;9.032;2023-06-05T10:31:59;62941.88;;;-144.18;100.00
56713;BME280;42589;45.536;9.032;2023-06-05T10:38:25;62941.88;;;-144.18;100.00
56713;BME280;42589;45.536;9.032;2023-06-05T10:41:26;62941.88;;;-144.18;100.00
56713;BME280;42589;45.536;9.032;2023-06-05T10:44:43;62941.88;;;-144.18;100.00
56713;BME280;42589;45.536;9.032;2023-06-05T10:48:03;62941.88;;;-144.18;100.00
56713;BME280;42589;45.536;9.032;2023-06-05T10:58:09;62941.88;;;-144.18;100.00
56713;BME280;42589;45.536;9.032;2023-06-05T11:01:22;62941.88;;;-144.18;100.00
56713;BME280;42589;45.536;9.032;2023-06-05T11:04:22;62941.88;;;-144.18;100.00
56713;BME280;42589;45.536;9.032;2023-06-05T11:07:28;62941.88;;;-144.18;100.00
56713;BME280;42589;45.536;9.032;2023-06-05T11:10:30;62941.88;;;-144.18;100.00
56713;BME280;42589;45.536;9.032;2023-06-05T11:13:56;62941.88;;;-144.18;100.00
56713;BME280;42589;45.536;9.032;2023-06-05T11:16:57;62941.88;;;-144.18;100.00
56713;BME280;42589;45.536;9.032;2023-06-05T11:19:59;62941.88;;;-144.18;100.00
56713;BME280;42589;45.536;9.032;2023-06-05T11:26:39;62941.88;;;-144.18;100.00
56713;BME280;42589;45.536;9.032;2023-06-05T11:29:42;62941.88;;;-144.18;100.00
56713;BME280;42589;45.536;9.032;2023-06-05T11:32:44;62941.88;;;-144.18;100.00
56713;BME280;42589;45.536;9.032;2023-06-05T11:35:48;62941.88;;;-144.18;100.00
56713;BME280;42589;45.536;9.032;2023-06-05T11:38:53;62941.88;;;-144.18;100.00
56713;BME280;42589;45.536;9.032;2023-06-05T11:41:54;62941.88;;;-144.18;100.00
56713;BME280;42589;45.536;9.032;2023-06-05T11:44:55;62941.88;;;-144.18;100.00
56713;BME280;42589;45.536;9.032;2023-06-05T11:48:15;62941.88;;;-144.18;100.00
56713;BME280;42589;45.536;9.032;2023-06-05T11:51:16;62941.88;;;-144.18;100.00
56713;BME280;42589;45.536;9.032;2023-06-05T11:54:27;62941.88;;;-144.18;100.00
56713;BME280;42589;45.536;9.032;2023-06-05T11:57:39;62941.88;;;-144.18;100.00
56713;BME280;42589;45.536;9.032;2023-06-05T12:00:40;62941.88;;;-144.18;100.00
56713;BME280;42589;45.536;9.032;2023-06-05T12:03:42;62941.88;;;-144.18;100.00
56713;BME280;42589;45.536;9.032;2023-06-05T12:06:45;62941.88;;;-144.18;100.00
56713;BME280;42589;45.536;9.032;2023-06-05T12:09:52;62941.88;;;-144.18;100.00
56713;BME280;42589;45.536;9.032;2023-06-05T12:12:53;62941.88;;;-144.18;100.00
56713;BME280;42589;45.536;9.032;2023-06-05T12:16:00;62941.88;;;-144.18;100.00
56713;BME280;42589;45.536;9.032;2023-06-05T12:19:02;62941.88;;;-144.18;100.00
56713;BME280;42589;45.536;9.032;2023-06-05T12:22:05;62941.88;;;-144.18;100.00
56713;BME280;42589;45.536;9.032;2023-06-05T12:25:22;62941.88;;;-144.18;100.00
56713;BME280;42589;45.536;9.032;2023-06-05T12:28:23;62941.88;;;-144.18;100.00
56713;BME280;42589;45.536;9.032;2023-06-05T12:31:36;62941.88;;;-144.18;100.00
56713;BME280;42589;45.536;9.032;2023-06-05T12:34:46;62941.88;;;-144.18;100.00
56713;BME280;42589;45.536;9.032;2023-06-05T12:37:48;62941.88;;;-144.18;100.00
56713;BME280;42589;45.536;9.032;2023-06-05T12:40:49;62941.88;;;-144.18;100.00
56713;BME280;42589;45.536;9.032;2023-06-05T12:44:01;62941.88;;;-144.18;100.00
56713;BME280;42589;45.536;9.032;2023-06-05T12:47:10;62941.88;;;-144.18;100.00
56713;BME280;42589;45.536;9.032;2023-06-05T12:50:12;62941.88;;;-144.18;100.00
56713;BME280;42589;45.536;9.032;2023-06-05T12:53:13;62941.88;;;-144.18;100.00
56713;BME280;42589;45.536;9.032;2023-06-05T12:56:14;62941.88;;;-144.18;100.00
56713;BME280;42589;45.536;9.032;2023-06-05T12:59:15;62941.88;;;-144.18;100.00
56713;BME280;42589;45.536;9.032;2023-06-05T13:02:16;62941.88;;;-144.18;100.00
56713;BME280;42589;45.536;9.032;2023-06-05T13:05:17;62941.88;;;-144.18;100.00
56713;BME280;42589;45.536;9.032;2023-06-05T13:08:18;62941.88;;;-144.18;100.00
56713;BME280;42589;45.536;9.032;2023-06-05T13:11:19;62941.88;;;-144.18;100.00
56713;BME280;42589;45.536;9.032;2023-06-05T13:14:19;62941.88;;;-144.18;100.00
56713;BME280;42589;45.536;9.032;2023-06-05T13:17:20;62941.88;;;-144.18;100.00
56713;BME280;42589;45.536;9.032;2023-06-05T13:20:21;62941.88;;;-144.18;100.00
56713;BME280;42589;45.536;9.032;2023-06-05T13:23:22;62941.88;;;-144.18;100.00
56713;BME280;42589;45.536;9.032;2023-06-05T13:26:24;62941.88;;;-144.18;100.00
56713;BME280;42589;45.536;9.032;2023-06-05T13:29:26;62941.88;;;-144.18;100.00
56713;BME280;42589;45.536;9.032;2023-06-05T13:32:27;62941.88;;;-144.18;100.00
56713;BME280;42589;45.536;9.032;2023-06-05T13:35:28;62941.88;;;-144.18;100.00
56713;BME280;42589;45.536;9.032;2023-06-05T13:38:30;62941.88;;;-144.18;100.00
56713;BME280;42589;45.536;9.032;2023-06-05T13:41:31;62941.88;;;-144.18;100.00
56713;BME280;42589;45.536;9.032;2023-06-05T13:44:32;62941.88;;;-144.18;100.00
56713;BME280;42589;45.536;9.032;2023-06-05T13:47:33;62941.88;;;-144.18;100.00
56713;BME280;42589;45.536;9.032;2023-06-05T13:50:33;62941.88;;;-144.18;100.00
56713;BME280;42589;45.536;9.032;2023-06-05T13:53:34;62941.88;;;-144.18;100.00
56713;BME280;42589;45.536;9.032;2023-06-05T13:56:35;62941.88;;;-144.18;100.00
56713;BME280;42589;45.536;9.032;2023-06-05T13:59:36;62941.88;;;-144.18;100.00
56713;BME280;42589;45.536;9.032;2023-06-05T14:02:37;62941.88;;;-144.18;100.00
56713;BME280;42589;45.536;9.032;2023-06-05T14:05:39;62941.88;;;-144.18;100.00
56713;BME280;42589;45.536;9.032;2023-06-05T14:08:41;62941.88;;;-144.18;100.00
56713;BME280;42589;45.536;9.032;2023-06-05T14:11:44;62941.88;;;-144.18;100.00
56713;BME280;42589;45.536;9.032;2023-06-05T14:14:45;62941.88;;;-144.18;100.00
56713;BME280;42589;45.536;9.032;2023-06-05T14:17:47;62941.88;;;-144.18;100.00
56713;BME280;42589;45.536;9.032;2023-06-05T14:20:48;62941.88;;;-144.18;100.00
56713;BME280;42589;45.536;9.032;2023-06-05T14:23:49;62941.88;;;-144.18;100.00
56713;BME280;42589;45.536;9.032;2023-06-05T14:26:50;62941.88;;;-144.18;100.00
56713;BME280;42589;45.536;9.032;2023-06-05T14:29:52;62941.88;;;-144.18;100.00
56713;BME280;42589;45.536;9.032;2023-06-05T14:32:53;62941.88;;;-144.18;100.00
56713;BME280;42589;45.536;9.032;2023-06-05T14:35:54;62941.88;;;-144.18;100.00
56713;BME280;42589;45.536;9.032;2023-06-05T14:38:55;62941.88;;;-144.18;100.00
56713;BME280;42589;45.536;9.032;2023-06-05T14:41:55;62941.88;;;-144.18;100.00
56713;BME280;42589;45.536;9.032;2023-06-05T14:44:56;62941.88;;;-144.18;100.00
56713;BME280;42589;45.536;9.032;2023-06-05T14:47:57;62941.88;;;-144.18;100.00
56713;BME280;42589;45.536;9.032;2023-06-05T14:50:58;62941.88;;;-144.18;100.00
56713;BME280;42589;45.536;9.032;2023-06-05T14:53:59;62941.88;;;-144.18;100.00
56713;BME280;42589;45.536;9.032;2023-06-05T14:57:01;62941.88;;;-144.18;100.00
56713;BME280;42589;45.536;9.032;2023-06-05T15:00:03;62941.88;;;-144.18;100.00
56713;BME280;42589;45.536;9.032;2023-06-05T15:03:05;62941.88;;;-144.18;100.00
56713;BME280;42589;45.536;9.032;2023-06-05T15:06:06;62941.88;;;-144.18;100.00
56713;BME280;42589;45.536;9.032;2023-06-05T15:09:07;62941.88;;;-144.18;100.00
56713;BME280;42589;45.536;9.032;2023-06-05T15:12:07;62941.88;;;-144.18;100.00
56713;BME280;42589;45.536;9.032;2023-06-05T15:15:10;62941.88;;;-144.18;100.00
56713;BME280;42589;45.536;9.032;2023-06-05T15:18:14;62941.88;;;-144.18;100.00
56713;BME280;42589;45.536;9.032;2023-06-05T15:21:22;62941.88;;;-144.18;100.00
56713;BME280;42589;45.536;9.032;2023-06-05T15:24:23;62941.88;;;-144.18;100.00
56713;BME280;42589;45.536;9.032;2023-06-05T15:27:24;62941.88;;;-144.18;100.00
56713;BME280;42589;45.536;9.032;2023-06-05T15:30:25;62941.88;;;-144.18;100.00
56713;BME280;42589;45.536;9.032;2023-06-05T15:33:26;62941.88;;;-144.18;100.00
56713;BME280;42589;45.536;9.032;2023-06-05T15:36:26;62941.88;;;-144.18;100.00
56713;BME280;42589;45.536;9.032;2023-06-05T15:39:27;62941.88;;;-144.18;100.00
56713;BME280;42589;45.536;9.032;2023-06-05T15:42:32;62941.88;;;-144.18;100.00
56713;BME280;42589;45.536;9.032;2023-06-05T15:45:34;62941.88;;;-144.18;100.00
56713;BME280;42589;45.536;9.032;2023-06-05T15:48:36;62941.88;;;-144.18;100.00
56713;BME280;42589;45.536;9.032;2023-06-05T15:51:37;62941.88;;;-144.18;100.00
56713;BME280;42589;45.536;9.032;2023-06-05T15:54:38;62941.88;;;-144.18;100.00
56713;BME280;42589;45.536;9.032;2023-06-05T15:57:39;62941.88;;;-144.18;100.00